Time;durP1;ratioP1;P1;durP2;ratioP2;P2;SDS_P1;SDS_P2;PMS_P1;PMS_P2;Temp;Humidity;BMP_temperature;BMP_pressure;BME280_temperature;BME280_humidity;BME280_pressure;Samples;Min_cycle;Max_cycle;Signal;HPM_P1;HPM_P2
2021/11/07 00:01:44;;;;;;;12.15;9.30;;;1.80;99.90;;;;;;5069862;28;20657;-84
2021/11/07 00:04:24;;;;;;;14.30;8.88;;;1.70;99.90;;;;;;5070452;28;20197;-84
2021/11/07 00:06:54;;;;;;;11.55;7.82;;;;;;;;;;5070341;28;20203;-85
2021/11/07 00:09:27;;;;;;;9.23;8.32;;;;;;;;;;5069971;28;20604;-85
2021/11/07 00:11:59;;;;;;;10.00;7.25;;;;;;;;;;5069508;28;20207;-85
2021/11/07 00:14:27;;;;;;;11.10;7.93;;;2.30;99.90;;;;;;5068933;28;20200;-84
2021/11/07 00:16:55;;;;;;;10.65;7.32;;;;;;;;;;5070214;28;20235;-85
2021/11/07 00:19:29;;;;;;;11.52;8.35;;;;;;;;;;5069957;28;20658;-85
2021/11/07 00:22:04;;;;;;;11.48;7.95;;;;;;;;;;5069338;28;20204;-85
2021/11/07 00:24:37;;;;;;;14.05;9.10;;;;;;;;;;5069567;28;20204;-85
2021/11/07 00:27:08;;;;;;;9.60;7.10;;;;;;;;;;5070334;28;20205;-85
2021/11/07 00:29:39;;;;;;;12.63;9.00;;;;;;;;;;5069685;28;20595;-85
2021/11/07 00:32:15;;;;;;;13.90;6.63;;;2.20;99.90;;;;;;5070028;28;20282;-85
2021/11/07 00:37:28;;;;;;;10.95;6.97;;;;;;;;;;5070019;28;20223;-85
2021/11/07 00:40:07;;;;;;;11.60;7.28;;;;;;;;;;5070407;28;20207;-85
2021/11/07 00:42:44;;;;;;;12.65;8.52;;;2.00;99.90;;;;;;5050651;28;20251;-85
2021/11/07 00:45:22;;;;;;;11.30;7.45;;;2.00;99.90;;;;;;5050400;28;20646;-86
2021/11/07 00:48:00;;;;;;;11.32;7.00;;;;;;;;;;5050897;28;20284;-85
2021/11/07 00:50:34;;;;;;;9.52;6.82;;;2.10;99.90;;;;;;5050165;28;20228;-84
2021/11/07 00:53:16;;;;;;;10.23;6.25;;;2.10;99.90;;;;;;5050738;28;20202;-84
2021/11/07 00:55:47;;;;;;;10.35;7.07;;;;;;;;;;5050760;28;20765;-85
2021/11/07 00:58:19;;;;;;;9.23;6.80;;;2.10;99.90;;;;;;5050560;28;20213;-85
2021/11/07 01:00:50;;;;;;;11.07;7.25;;;2.20;99.90;;;;;;5049258;28;20208;-85
2021/11/07 01:03:19;;;;;;;15.43;8.57;;;;;;;;;;5050193;28;20204;-84
2021/11/07 01:05:47;;;;;;;7.22;6.53;;;2.80;99.90;;;;;;5050074;28;20208;-85
2021/11/07 01:08:14;;;;;;;10.43;6.25;;;;;;;;;;5051537;28;20208;-84
2021/11/07 01:10:42;;;;;;;10.63;6.90;;;;;;;;;;5052134;28;20233;-84
2021/11/07 01:13:09;;;;;;;11.48;7.35;;;2.00;99.90;;;;;;5053358;28;20236;-85
2021/11/07 01:15:38;;;;;;;12.07;6.93;;;;;;;;;;5052460;28;20209;-85
2021/11/07 01:18:06;;;;;;;8.77;6.38;;;;;;;;;;5053515;28;20201;-84
2021/11/07 01:20:33;;;;;;;9.55;6.80;;;;;;;;;;5052355;28;20220;-84
2021/11/07 01:23:09;;;;;;;9.00;5.53;;;1.80;99.90;;;;;;5052427;28;20212;-84
2021/11/07 01:25:42;;;;;;;9.77;7.60;;;1.70;99.90;;;;;;5053316;28;20201;-85
2021/11/07 01:28:10;;;;;;;10.20;6.95;;;;;;;;;;5053472;28;20204;-84
2021/11/07 01:30:44;;;;;;;12.20;7.97;;;;;;;;;;5052927;28;20229;-84
2021/11/07 01:33:16;;;;;;;7.45;6.38;;;;;;;;;;5066415;28;20210;-84
2021/11/07 01:35:47;;;;;;;11.70;8.15;;;;;;;;;;5073003;28;20696;-84
2021/11/07 01:38:17;;;;;;;9.48;7.03;;;;;;;;;;5073116;28;20247;-84
2021/11/07 01:40:55;;;;;;;11.45;8.02;;;2.40;99.90;;;;;;5072293;28;20196;-84
2021/11/07 01:43:22;;;;;;;11.48;8.40;;;;;;;;;;5073033;28;20262;-84
2021/11/07 01:45:57;;;;;;;10.93;7.68;;;;;;;;;;5072744;28;20200;-84
2021/11/07 01:48:27;;;;;;;10.73;6.97;;;;;;;;;;5072811;28;20199;-84
2021/11/07 01:50:56;;;;;;;9.82;7.18;;;;;;;;;;5072436;28;20235;-83
2021/11/07 01:53:31;;;;;;;14.75;8.45;;;2.30;99.90;;;;;;5072882;28;20197;-84
2021/11/07 01:56:00;;;;;;;9.73;8.25;;;2.10;99.90;;;;;;5073247;28;20208;-84
2021/11/07 01:58:27;;;;;;;10.00;6.65;;;;;;;;;;5072911;28;20204;-86
2021/11/07 02:00:56;;;;;;;12.68;8.77;;;2.30;99.90;;;;;;5072572;28;20248;-84
2021/11/07 02:03:25;;;;;;;12.98;8.10;;;2.30;99.90;;;;;;5072158;28;20607;-84
2021/11/07 02:05:52;;;;;;;10.77;7.97;;;;;;;;;;5072972;28;20231;-84
2021/11/07 02:08:20;;;;;;;11.35;9.30;;;;;;;;;;5073109;28;20232;-84
2021/11/07 02:10:48;;;;;;;9.68;7.55;;;2.50;99.90;;;;;;5071821;28;20244;-83
2021/11/07 02:13:15;;;;;;;12.75;9.35;;;;;;;;;;5072250;28;20232;-85
2021/11/07 02:15:42;;;;;;;11.73;8.40;;;;;;;;;;5071843;28;20626;-84
2021/11/07 02:18:11;;;;;;;11.45;8.70;;;;;;;;;;5072654;28;20235;-85
2021/11/07 02:20:42;;;;;;;11.85;9.18;;;2.70;99.90;;;;;;5072192;28;20592;-85
2021/11/07 02:23:12;;;;;;;12.45;9.13;;;2.40;99.90;;;;;;5072462;28;20695;-84
2021/11/07 02:25:41;;;;;;;11.55;9.95;;;2.50;99.90;;;;;;5071967;28;20204;-84
2021/11/07 02:28:09;;;;;;;12.35;9.07;;;2.50;99.90;;;;;;5072771;28;20636;-84
2021/11/07 02:30:38;;;;;;;11.82;8.23;;;2.50;99.90;;;;;;5071801;28;20709;-84
2021/11/07 02:33:06;;;;;;;13.35;9.30;;;;;;;;;;5071856;28;20745;-84
2021/11/07 02:35:33;;;;;;;11.20;8.57;;;;;;;;;;5071768;28;20208;-85
2021/11/07 02:38:02;;;;;;;13.60;9.25;;;;;;;;;;5070839;28;20212;-84
2021/11/07 02:40:30;;;;;;;11.63;9.40;;;2.40;99.90;;;;;;5070875;28;20255;-85
2021/11/07 02:42:57;;;;;;;13.80;10.00;;;2.40;99.90;;;;;;5071383;28;20242;-85
2021/11/07 02:45:25;;;;;;;13.80;9.73;;;;;;;;;;5071466;28;20283;-84
2021/11/07 02:47:52;;;;;;;12.35;9.30;;;;;;;;;;5071347;28;20200;-85
2021/11/07 02:50:21;;;;;;;14.45;10.15;;;2.30;99.90;;;;;;5071039;28;20336;-84
2021/11/07 02:52:48;;;;;;;11.23;8.10;;;;;;;;;;5071332;28;20204;-85
2021/11/07 02:55:20;;;;;;;13.00;9.90;;;2.30;99.90;;;;;;5071188;28;20204;-85
2021/11/07 02:57:47;;;;;;;11.85;9.40;;;;;;;;;;5071027;28;20679;-85
2021/11/07 03:00:16;;;;;;;14.38;9.40;;;;;;;;;;5070409;28;20262;-85
2021/11/07 03:02:44;;;;;;;14.40;10.13;;;2.20;99.90;;;;;;5070508;28;20723;-85
2021/11/07 03:05:12;;;;;;;13.85;10.07;;;2.10;99.90;;;;;;5070425;28;20308;-84
2021/11/07 03:07:42;;;;;;;12.85;9.32;;;2.10;99.90;;;;;;5070848;28;20238;-84
2021/11/07 03:10:09;;;;;;;13.27;9.25;;;2.00;99.90;;;;;;5070417;28;20231;-84
2021/11/07 03:12:38;;;;;;;10.88;8.90;;;2.10;99.90;;;;;;5070931;28;20200;-85
2021/11/07 03:15:07;;;;;;;11.27;8.75;;;2.30;99.90;;;;;;5070045;28;20232;-85
2021/11/07 03:17:35;;;;;;;15.25;9.80;;;;;;;;;;5070448;28;20514;-84
2021/11/07 03:20:02;;;;;;;12.27;9.32;;;;;;;;;;5070450;28;20207;-86
2021/11/07 03:22:30;;;;;;;14.65;9.10;;;2.10;99.90;;;;;;5070297;28;20247;-86
2021/11/07 03:24:58;;;;;;;14.05;9.63;;;;;;;;;;5070474;28;20212;-84
2021/11/07 03:27:29;;;;;;;14.10;10.40;;;1.90;99.90;;;;;;5070443;28;20227;-85
2021/11/07 03:30:00;;;;;;;13.93;9.88;;;2.00;99.90;;;;;;5069693;28;20220;-85
2021/11/07 03:32:29;;;;;;;12.23;9.57;;;;;;;;;;5069963;28;20204;-84
2021/11/07 03:35:00;;;;;;;13.70;9.15;;;1.80;99.90;;;;;;5070417;28;20570;-85
2021/11/07 03:37:30;;;;;;;13.88;9.15;;;;;;;;;;5070372;28;20225;-85
2021/11/07 03:40:00;;;;;;;15.52;9.80;;;1.80;99.90;;;;;;5070221;28;20211;-84
2021/11/07 03:42:29;;;;;;;13.35;9.90;;;1.80;99.90;;;;;;5069998;28;20204;-84
2021/11/07 03:44:58;;;;;;;10.57;8.05;;;;;;;;;;5070261;28;20212;-85
2021/11/07 03:47:25;;;;;;;9.80;8.07;;;;;;;;;;5070544;28;20219;-85
2021/11/07 03:49:54;;;;;;;13.85;10.57;;;;;;;;;;5070066;28;20279;-85
2021/11/07 03:52:21;;;;;;;11.38;8.25;;;;;;;;;;5069596;28;20208;-85
2021/11/07 03:54:49;;;;;;;9.40;8.30;;;1.70;99.90;;;;;;5070182;28;20261;-85
2021/11/07 03:57:16;;;;;;;13.95;9.73;;;;;;;;;;5069951;28;20231;-84
2021/11/07 03:59:49;;;;;;;11.07;8.80;;;1.70;99.90;;;;;;5070351;28;20247;-84
2021/11/07 04:02:17;;;;;;;13.40;9.80;;;;;;;;;;5069569;28;20657;-84
2021/11/07 04:04:45;;;;;;;14.38;9.25;;;;;;;;;;5070213;28;21006;-84
2021/11/07 04:07:12;;;;;;;13.02;10.02;;;;;;;;;;5070228;28;20207;-84
2021/11/07 04:09:40;;;;;;;11.57;9.10;;;;;;;;;;5069730;28;20195;-83
2021/11/07 04:12:07;;;;;;;11.93;9.40;;;;;;;;;;5069797;28;20317;-84
2021/11/07 04:14:35;;;;;;;13.38;9.43;;;;;;;;;;5069435;28;20720;-84
2021/11/07 04:17:04;;;;;;;12.60;9.98;;;2.10;99.90;;;;;;5070214;28;20204;-84
2021/11/07 04:19:32;;;;;;;10.23;8.65;;;2.20;99.90;;;;;;5069850;28;20226;-84
2021/11/07 04:22:03;;;;;;;9.60;8.25;;;;;;;;;;5069357;28;20209;-84
2021/11/07 04:24:30;;;;;;;10.40;8.27;;;;;;;;;;5069456;28;20250;-85
2021/11/07 04:26:58;;;;;;;13.98;9.63;;;2.00;99.90;;;;;;5069935;28;20311;-85
2021/11/07 04:29:26;;;;;;;11.15;9.57;;;;;;;;;;5069819;28;20227;-85
2021/11/07 04:31:54;;;;;;;13.23;9.20;;;;;;;;;;5069357;28;20227;-85
2021/11/07 04:34:21;;;;;;;15.02;9.50;;;;;;;;;;5069940;28;20204;-84
2021/11/07 04:36:50;;;;;;;8.80;7.88;;;;;;;;;;5069139;28;20266;-84
2021/11/07 04:39:17;;;;;;;9.32;8.20;;;;;;;;;;5070166;28;20199;-85
2021/11/07 04:41:45;;;;;;;13.10;8.88;;;;;;;;;;5070404;28;20208;-85
2021/11/07 04:44:12;;;;;;;13.25;9.93;;;;;;;;;;5073424;28;20238;-84
2021/11/07 04:46:39;;;;;;;12.38;8.90;;;;;;;;;;5073628;28;20715;-84
2021/11/07 04:49:07;;;;;;;14.13;10.55;;;2.00;99.90;;;;;;5073751;28;20283;-84
2021/11/07 04:51:34;;;;;;;9.95;8.13;;;;;;;;;;5072778;28;20320;-84
2021/11/07 04:54:03;;;;;;;10.95;7.13;;;;;;;;;;5073446;28;20661;-84
2021/11/07 04:56:31;;;;;;;10.95;9.43;;;2.10;99.90;;;;;;5073698;28;20721;-84
2021/11/07 04:58:58;;;;;;;16.33;9.35;;;;;;;;;;5073373;28;20200;-84
2021/11/07 05:01:25;;;;;;;11.57;8.52;;;;;;;;;;5072681;28;20303;-85
2021/11/07 05:03:56;;;;;;;17.52;10.70;;;;;;;;;;5072804;28;20265;-84
2021/11/07 05:06:24;;;;;;;13.02;9.55;;;;;;;;;;5073474;28;20220;-84
2021/11/07 05:08:52;;;;;;;14.45;9.35;;;;;;;;;;5073299;28;20192;-85
2021/11/07 05:11:22;;;;;;;11.43;9.05;;;;;;;;;;5072480;28;20234;-84
2021/11/07 05:13:49;;;;;;;14.13;10.65;;;;;;;;;;5073110;28;20208;-84
2021/11/07 05:16:17;;;;;;;12.68;8.52;;;;;;;;;;5072015;28;20233;-85
2021/11/07 05:18:48;;;;;;;10.38;8.15;;;;;;;;;;5073027;28;20291;-84
2021/11/07 05:21:15;;;;;;;9.90;7.43;;;;;;;;;;5072485;28;20209;-84
2021/11/07 05:23:42;;;;;;;12.00;8.60;;;;;;;;;;5072976;28;20294;-85
2021/11/07 05:26:09;;;;;;;10.60;8.43;;;;;;;;;;5072697;28;20231;-84
2021/11/07 05:28:38;;;;;;;12.93;9.10;;;;;;;;;;5072699;28;20283;-85
2021/11/07 05:31:07;;;;;;;11.77;9.23;;;;;;;;;;5071470;28;20227;-85
2021/11/07 05:33:35;;;;;;;15.98;9.45;;;;;;;;;;5072499;28;20282;-85
2021/11/07 05:36:02;;;;;;;11.88;9.13;;;;;;;;;;5072642;28;20203;-82
2021/11/07 05:38:38;;;;;;;11.05;7.85;;;;;;;;;;5072683;28;20263;-85
2021/11/07 05:41:11;;;;;;;11.43;7.72;;;;;;;;;;5072046;28;20242;-85
2021/11/07 05:43:41;;;;;;;8.55;6.60;;;2.10;99.90;;;;;;5072398;28;20203;-85
2021/11/07 05:46:12;;;;;;;10.93;8.25;;;;;;;;;;5072209;28;20672;-84
2021/11/07 05:48:39;;;;;;;15.95;8.80;;;;;;;;;;5073032;28;20200;-84
2021/11/07 05:51:07;;;;;;;11.82;7.10;;;2.20;99.90;;;;;;5071636;28;20696;-85
2021/11/07 05:53:34;;;;;;;12.05;8.88;;;;;;;;;;5071540;28;20253;-85
2021/11/07 05:56:02;;;;;;;13.40;9.35;;;;;;;;;;5071809;28;20287;-84
2021/11/07 05:58:29;;;;;;;12.10;8.75;;;;;;;;;;5072473;28;20858;-84
2021/11/07 06:00:57;;;;;;;13.43;9.02;;;2.30;99.90;;;;;;5071634;28;20298;-85
2021/11/07 06:03:25;;;;;;;14.35;8.70;;;;;;;;;;5072154;28;20200;-84
2021/11/07 06:05:52;;;;;;;11.25;7.90;;;;;;;;;;5071976;28;20200;-84
2021/11/07 06:08:19;;;;;;;14.10;8.23;;;;;;;;;;5071603;28;20234;-84
2021/11/07 06:10:46;;;;;;;13.77;8.43;;;;;;;;;;5071141;28;20293;-84
2021/11/07 06:13:14;;;;;;;9.55;7.82;;;;;;;;;;5071802;28;20661;-84
2021/11/07 06:15:41;;;;;;;11.43;8.52;;;;;;;;;;5071082;28;20643;-84
2021/11/07 06:18:09;;;;;;;14.82;9.23;;;;;;;;;;5071997;28;20242;-85
2021/11/07 06:20:37;;;;;;;11.02;7.97;;;;;;;;;;5071041;28;20282;-84
2021/11/07 06:23:05;;;;;;;10.88;8.55;;;;;;;;;;5071157;28;20261;-84
2021/11/07 06:25:32;;;;;;;12.48;8.73;;;;;;;;;;5071869;28;20560;-85
2021/11/07 06:28:00;;;;;;;15.65;9.52;;;2.20;99.90;;;;;;5071749;28;20296;-85
2021/11/07 06:30:28;;;;;;;16.38;10.30;;;;;;;;;;5070888;28;20677;-85
2021/11/07 06:32:55;;;;;;;13.63;9.85;;;;;;;;;;5071362;28;20207;-84
2021/11/07 06:35:24;;;;;;;15.50;11.63;;;2.20;99.90;;;;;;5071139;28;20227;-85
2021/11/07 06:37:51;;;;;;;17.85;10.57;;;;;;;;;;5070923;28;20269;-85
2021/11/07 06:40:19;;;;;;;14.70;10.15;;;2.30;99.90;;;;;;5070560;28;20290;-85
2021/11/07 06:42:46;;;;;;;13.55;10.27;;;;;;;;;;5071498;28;20204;-85
2021/11/07 06:45:14;;;;;;;18.10;10.35;;;2.40;99.90;;;;;;5071276;28;20656;-85
2021/11/07 06:47:42;;;;;;;12.90;10.00;;;2.00;99.90;;;;;;5071427;28;20222;-86
2021/11/07 06:50:12;;;;;;;17.83;10.90;;;;;;;;;;5070288;28;20207;-86
2021/11/07 06:52:41;;;;;;;11.45;8.32;;;;;;;;;;5071405;28;20263;-86
2021/11/07 06:55:09;;;;;;;20.88;11.55;;;2.40;99.90;;;;;;5071145;28;20232;-86
2021/11/07 06:57:36;;;;;;;16.33;10.93;;;;;;;;;;5071266;28;20617;-85
2021/11/07 07:00:05;;;;;;;15.88;11.55;;;1.80;99.90;;;;;;5070870;28;20200;-86
2021/11/07 07:02:33;;;;;;;20.30;12.68;;;;;;;;;;5070240;28;20212;-85
2021/11/07 07:05:03;;;;;;;12.15;9.95;;;;;;;;;;5070227;28;20199;-85
2021/11/07 07:07:34;;;;;;;14.50;11.18;;;;;;;;;;5070959;28;20208;-85
2021/11/07 07:10:04;;;;;;;15.02;9.75;;;;;;;;;;5070413;28;20209;-85
2021/11/07 07:12:35;;;;;;;11.93;10.35;;;;;;;;;;5070494;28;20233;-85
2021/11/07 07:15:06;;;;;;;18.45;11.50;;;;;;;;;;5069571;28;20202;-84
2021/11/07 07:17:40;;;;;;;14.02;10.30;;;;;;;;;;5070524;28;20205;-84
2021/11/07 07:20:22;;;;;;;16.30;10.65;;;3.10;99.90;;;;;;5070396;28;20211;-83
2021/11/07 07:26:08;;;;;;;16.95;10.82;;;;;;;;;;5067849;28;20240;-83
2021/11/07 07:28:41;;;;;;;14.80;10.20;;;;;;;;;;5070563;28;20204;-84
2021/11/07 07:33:58;;;;;;;18.50;12.23;;;;;;;;;;5048840;28;20258;-83
2021/11/07 07:36:25;;;;;;;11.40;9.25;;;;;;;;;;5070538;28;20206;-84
2021/11/07 07:38:52;;;;;;;18.85;10.27;;;;;;;;;;5070746;28;20196;-85
2021/11/07 07:41:21;;;;;;;14.93;11.40;;;;;;;;;;5069565;28;20234;-84
2021/11/07 07:43:51;;;;;;;18.50;11.63;;;;;;;;;;5070225;28;20198;-85
2021/11/07 07:46:18;;;;;;;24.35;13.57;;;;;;;;;;5069733;28;20295;-86
2021/11/07 07:48:46;;;;;;;17.08;11.57;;;;;;;;;;5070372;28;20231;-84
2021/11/07 07:51:16;;;;;;;14.10;10.77;;;;;;;;;;5069583;28;20220;-86
2021/11/07 07:53:44;;;;;;;15.00;11.00;;;;;;;;;;5070264;28;20258;-83
2021/11/07 07:56:11;;;;;;;21.58;12.05;;;;;;;;;;5069982;28;20292;-86
2021/11/07 07:58:41;;;;;;;18.27;10.77;;;4.20;99.90;;;;;;5070180;28;20291;-86
2021/11/07 08:01:08;;;;;;;14.45;11.25;;;4.30;99.90;;;;;;5069014;28;20236;-85
2021/11/07 08:03:36;;;;;;;18.58;11.32;;;4.40;99.90;;;;;;5070036;28;20248;-85
2021/11/07 08:06:03;;;;;;;12.68;9.65;;;;;;;;;;5069918;28;20209;-85
2021/11/07 08:08:31;;;;;;;14.18;9.73;;;;;;;;;;5070033;28;20271;-84
2021/11/07 08:10:58;;;;;;;13.63;8.98;;;;;;;;;;5068961;28;20866;-86
2021/11/07 08:13:25;;;;;;;14.15;10.25;;;;;;;;;;5069612;28;20678;-85
2021/11/07 08:15:54;;;;;;;16.90;10.88;;;;;;;;;;5067799;28;20202;-85
2021/11/07 08:18:21;;;;;;;18.85;12.02;;;4.30;99.90;;;;;;5072319;28;20292;-85
2021/11/07 08:20:49;;;;;;;13.18;10.55;;;;;;;;;;5073393;28;20233;-86
2021/11/07 08:23:17;;;;;;;11.90;9.50;;;;;;;;;;5073877;28;20254;-86
2021/11/07 08:25:44;;;;;;;11.52;9.20;;;;;;;;;;5073845;28;20199;-85
2021/11/07 08:28:11;;;;;;;15.77;9.40;;;;;;;;;;5073586;28;20244;-85
2021/11/07 08:30:41;;;;;;;16.92;10.40;;;4.90;99.90;;;;;;5073292;28;20241;-85
2021/11/07 08:33:09;;;;;;;13.32;10.27;;;;;;;;;;5073697;28;20230;-85
2021/11/07 08:35:52;;;;;;;14.63;9.75;;;4.40;99.90;;;;;;5073942;28;20210;-86
2021/11/07 08:38:22;;;;;;;14.43;10.68;;;;;;;;;;5073226;28;20237;-84
2021/11/07 08:40:51;;;;;;;13.15;9.40;;;;;;;;;;5072879;28;20206;-85
2021/11/07 09:00:21;;;;;;;13.32;9.20;;;4.70;99.90;;;;;;5072789;28;20210;-85
2021/11/07 09:03:13;;;;;;;12.93;9.30;;;;;;;;;;5073341;28;20630;-86
2021/11/07 09:06:12;;;;;;;11.38;9.07;;;5.00;99.90;;;;;;5073211;28;20232;-86
2021/11/07 09:08:40;;;;;;;14.57;8.80;;;;;;;;;;5073145;28;20214;-87
2021/11/07 09:11:08;;;;;;;15.20;10.00;;;;;;;;;;5072437;28;20206;-86
2021/11/07 09:13:35;;;;;;;12.93;9.18;;;;;;;;;;5072857;28;20306;-87
2021/11/07 09:16:19;;;;;;;12.38;7.63;;;;;;;;;;5071721;28;20199;-85
2021/11/07 09:18:46;;;;;;;11.00;7.60;;;;;;;;;;5072827;28;20648;-86
2021/11/07 09:21:20;;;;;;;12.50;8.32;;;;;;;;;;5072469;28;20227;-85
2021/11/07 09:23:52;;;;;;;12.25;8.63;;;;;;;;;;5072815;28;20586;-88
2021/11/07 09:26:30;;;;;;;10.77;7.53;;;;;;;;;;5072197;28;20210;-84
2021/11/07 09:29:01;;;;;;;7.70;6.70;;;;;;;;;;5071790;28;20206;-85
2021/11/07 09:31:42;;;;;;;13.18;9.32;;;;;;;;;;5072086;28;20210;-86
2021/11/07 09:34:35;;;;;;;8.48;7.50;;;;;;;;;;5052711;28;20208;-86
2021/11/07 09:37:06;;;;;;;8.20;6.30;;;;;;;;;;5052780;28;20319;-86
2021/11/07 09:39:37;;;;;;;8.50;6.40;;;;;;;;;;5052561;28;20207;-87
2021/11/07 09:42:31;;;;;;;14.35;6.13;;;;;;;;;;5068073;28;20200;-86
2021/11/07 09:45:07;;;;;;;8.68;5.95;;;;;;;;;;5072235;28;20227;-85
2021/11/07 09:47:37;;;;;;;8.52;5.53;;;6.60;99.90;;;;;;5072579;28;20206;-86
2021/11/07 09:50:06;;;;;;;7.03;6.30;;;6.60;99.90;;;;;;5072294;28;20204;-85
2021/11/07 09:52:46;;;;;;;7.30;5.15;;;;;;;;;;5072174;28;20273;-86
2021/11/07 09:55:13;;;;;;;8.38;4.82;;;;;;;;;;5072937;28;20200;-86
2021/11/07 09:57:41;;;;;;;8.27;5.28;;;;;;;;;;5071452;28;20260;-85
2021/11/07 10:00:13;;;;;;;7.20;5.18;;;7.20;99.90;;;;;;5071363;28;20199;-86
2021/11/07 10:02:40;;;;;;;5.10;4.57;;;;;;;;;;5072105;28;20203;-87
2021/11/07 10:05:10;;;;;;;5.18;4.65;;;7.20;99.90;;;;;;5072178;28;20242;-86
2021/11/07 10:07:39;;;;;;;4.95;3.95;;;;;;;;;;5072091;28;20239;-87
2021/11/07 10:10:15;;;;;;;8.38;4.20;;;7.50;99.90;;;;;;5070893;28;20211;-86
2021/11/07 10:12:45;;;;;;;5.82;3.90;;;;;;;;;;5071583;28;20330;-88
2021/11/07 10:15:19;;;;;;;4.90;3.42;;;;;;;;;;5071053;28;20210;-88
2021/11/07 10:17:50;;;;;;;5.97;3.90;;;;;;;;;;5072145;28;20204;-87
2021/11/07 10:20:21;;;;;;;3.47;3.15;;;;;;;;;;5071145;28;20261;-87
2021/11/07 10:22:52;;;;;;;3.63;3.10;;;;;;;;;;5071510;28;20295;-86
2021/11/07 10:25:23;;;;;;;3.03;2.73;;;;;;;;;;5071856;28;20232;-86
2021/11/07 10:27:54;;;;;;;4.03;3.10;;;;;;;;;;5071607;28;20626;-87
2021/11/07 10:30:23;;;;;;;3.10;2.60;;;;;;;;;;5070781;28;20721;-86
2021/11/07 10:33:01;;;;;;;4.10;3.50;;;;;;;;;;5071181;28;20760;-88
2021/11/07 10:38:25;;;;;;;2.90;2.43;;;;;;;;;;5070684;28;20622;-87
2021/11/07 10:41:10;;;;;;;2.20;2.00;;;;;;;;;;5068834;28;20623;-87
2021/11/07 10:43:46;;;;;;;2.73;2.53;;;8.30;99.90;;;;;;5070691;28;21163;-87
2021/11/07 10:52:12;;;;;;;2.40;2.20;;;;;;;;;;5050023;28;20615;-88
2021/11/07 10:54:44;;;;;;;2.83;2.20;;;;;;;;;;5050894;28;20626;-87
2021/11/07 10:57:17;;;;;;;2.23;2.00;;;;;;;;;;5051422;28;20638;-87
2021/11/07 10:59:44;;;;;;;3.23;2.70;;;;;;;;;;5051467;28;20645;-87
2021/11/07 11:02:30;;;;;;;3.20;2.70;;;;;;;;;;5067494;28;21639;-86
2021/11/07 11:05:01;;;;;;;3.60;2.60;;;;;;;;;;5068792;28;20636;-85
2021/11/07 11:07:29;;;;;;;4.33;2.77;;;;;;;;;;5068328;28;20684;-87
2021/11/07 11:10:15;;;;;;;8.97;3.00;;;;;;;;;;5070782;28;21029;-87
2021/11/07 11:13:05;;;;;;;2.97;2.67;;;;;;;;;;5069917;28;20711;-86
2021/11/07 11:15:38;;;;;;;2.47;2.27;;;;;;;;;;5068874;28;20622;-87
2021/11/07 11:18:19;;;;;;;2.17;2.03;;;9.70;99.90;;;;;;5069123;28;21317;-87
2021/11/07 11:23:59;;;;;;;2.00;1.80;;;;;;;;;;5070735;28;20705;-87
2021/11/07 11:26:40;;;;;;;2.43;2.03;;;;;;;;;;5070699;28;21255;-87
2021/11/07 11:29:24;;;;;;;2.17;1.87;;;;;;;;;;5070312;28;20973;-87
2021/11/07 11:31:57;;;;;;;2.10;2.00;;;;;;;;;;5070109;28;20620;-87
2021/11/07 11:34:28;;;;;;;2.20;1.80;;;;;;;;;;5070788;28;20732;-86
2021/11/07 11:37:01;;;;;;;1.50;1.40;;;;;;;;;;5070075;28;21174;-86
2021/11/07 11:39:33;;;;;;;1.17;1.10;;;;;;;;;;5070560;28;20630;-86
2021/11/07 11:42:05;;;;;;;1.67;1.57;;;;;;;;;;5068633;28;20626;-87
2021/11/07 11:44:34;;;;;;;1.20;1.10;;;;;;;;;;5070424;28;20628;-87
2021/11/07 11:47:13;;;;;;;1.27;1.17;;;;;;;;;;5070424;28;20631;-87
2021/11/07 11:49:57;;;;;;;1.53;1.00;;;;;;;;;;5070392;28;20632;-85
2021/11/07 11:52:34;;;;;;;1.60;1.50;;;;;;;;;;5068608;28;20751;-87
2021/11/07 11:55:15;;;;;;;1.20;1.00;;;;;;;;;;5070252;28;20624;-87
2021/11/07 11:57:53;;;;;;;1.10;1.10;;;;;;;;;;5070469;28;20641;-86
2021/11/07 12:00:39;;;;;;;0.70;0.70;;;;;;;;;;5068410;28;20720;-86
2021/11/07 12:03:12;;;;;;;1.23;1.13;;;;;;;;;;5070414;28;21186;-87
2021/11/07 12:05:42;;;;;;;1.30;1.20;;;;;;;;;;5070325;28;20653;-87
2021/11/07 12:08:19;;;;;;;0.80;0.80;;;;;;;;;;5070134;28;20610;-87
2021/11/07 12:10:50;;;;;;;2.20;1.53;;;;;;;;;;5069466;28;20630;-86
2021/11/07 12:13:31;;;;;;;1.20;0.90;;;;;;;;;;5070015;28;21466;-87
2021/11/07 12:16:05;;;;;;;0.97;0.97;;;;;;;;;;5068803;28;20618;-87
2021/11/07 12:18:32;;;;;;;1.13;1.07;;;;;;;;;;5050046;28;20634;-86
2021/11/07 12:21:01;;;;;;;0.87;0.87;;;;;;;;;;5049398;28;20668;-86
2021/11/07 12:23:32;;;;;;;1.07;1.00;;;;;;;;;;5049648;28;20633;-88
2021/11/07 12:26:20;;;;;;;1.33;1.07;;;;;;;;;;5050033;28;20618;-87
2021/11/07 12:28:48;;;;;;;1.43;1.10;;;;;;;;;;5052690;28;20635;-87
2021/11/07 12:31:17;;;;;;;0.80;0.80;;;;;;;;;;5065643;28;20745;-87
2021/11/07 12:33:49;;;;;;;1.30;1.20;;;;;;;;;;5066526;28;20754;-85
2021/11/07 12:36:30;;;;;;;2.60;1.30;;;;;;;;;;5067314;28;20625;-86
2021/11/07 12:41:42;;;;;;;1.43;1.33;;;;;;;;;;5062403;28;20618;-87
2021/11/07 12:44:21;;;;;;;1.97;1.23;;;;;;;;;;5065052;28;20682;-85
2021/11/07 12:47:05;;;;;;;1.23;1.13;;;;;;;;;;5068733;28;20698;-88
2021/11/07 12:49:37;;;;;;;1.03;0.97;;;;;;;;;;5058943;28;20633;-86
2021/11/07 12:52:23;;;;;;;1.30;1.20;;;;;;;;;;5064632;28;20632;-86
2021/11/07 12:54:50;;;;;;;1.03;0.90;;;;;;;;;;5069500;28;20639;-87
2021/11/07 12:57:19;;;;;;;3.50;1.13;;;;;;;;;;5051711;28;21207;-86
2021/11/07 12:59:46;;;;;;;1.30;1.20;;;;;;;;;;5069178;28;20626;-86
2021/11/07 13:02:22;;;;;;;1.13;1.13;;;;;;;;;;5060625;28;20961;-86
2021/11/07 13:04:52;;;;;;;1.70;1.60;;;;;;;;;;5058085;28;20717;-86
2021/11/07 13:07:30;;;;;;;1.30;1.20;;;;;;;;;;5052895;28;20634;-86
2021/11/07 13:10:00;;;;;;;2.10;1.30;;;;;;;;;;5070296;28;20723;-86
2021/11/07 13:12:32;;;;;;;0.73;0.73;;;10.70;99.90;;;;;;5072719;28;20622;-86
2021/11/07 13:15:11;;;;;;;0.97;0.90;;;;;;;;;;5071594;28;20719;-86
2021/11/07 13:18:17;;;;;;;1.17;1.17;;;;;;;;;;5072524;28;20657;-85
2021/11/07 13:20:55;;;;;;;1.13;1.10;;;10.30;99.90;;;;;;5070671;28;20632;-86
2021/11/07 13:23:41;;;;;;;2.00;1.10;;;;;;;;;;5072623;28;20679;-86
2021/11/07 13:26:13;;;;;;;0.60;0.60;;;;;;;;;;5072671;28;20756;-87
2021/11/07 13:28:43;;;;;;;1.40;1.30;;;10.20;99.90;;;;;;5072703;28;20621;-87
2021/11/07 13:31:16;;;;;;;1.10;1.00;;;10.20;99.90;;;;;;5052167;28;20676;-86
2021/11/07 13:33:44;;;;;;;1.10;1.00;;;;;;;;;;5053311;28;20697;-86
2021/11/07 13:36:15;;;;;;;0.90;0.90;;;10.30;99.90;;;;;;5056878;28;20633;-86
2021/11/07 13:38:46;;;;;;;1.77;0.90;;;;;;;;;;5071361;28;20617;-87
2021/11/07 13:41:17;;;;;;;1.03;0.93;;;10.10;99.90;;;;;;5061322;28;20645;-86
2021/11/07 13:43:45;;;;;;;0.73;0.70;;;;;;;;;;5060359;28;20963;-87
2021/11/07 13:46:13;;;;;;;0.70;0.70;;;;;;;;;;5052426;28;20667;-87
2021/11/07 13:48:40;;;;;;;0.70;0.70;;;;;;;;;;5067894;28;20632;-87
2021/11/07 13:51:07;;;;;;;1.17;1.00;;;;;;;;;;5069929;28;20680;-85
2021/11/07 13:53:38;;;;;;;1.00;1.00;;;10.10;99.90;;;;;;5070587;28;20669;-85
2021/11/07 13:56:06;;;;;;;0.80;0.73;;;;;;;;;;5071973;28;21178;-86
2021/11/07 13:58:34;;;;;;;1.07;1.00;;;10.00;98.40;;;;;;5062355;28;20634;-87
2021/11/07 14:01:04;;;;;;;2.60;1.07;;;10.00;99.90;;;;;;5069184;28;20634;-86
2021/11/07 14:03:31;;;;;;;1.30;1.20;;;;;;;;;;5057566;28;20634;-87
2021/11/07 14:06:04;;;;;;;0.60;0.60;;;9.90;99.70;;;;;;5071808;28;20626;-85
2021/11/07 14:08:41;;;;;;;2.40;1.17;;;;;;;;;;5072035;28;20634;-86
2021/11/07 14:11:09;;;;;;;0.80;0.80;;;;;;;;;;5052902;28;20634;-87
2021/11/07 14:13:41;;;;;;;1.20;1.10;;;9.80;99.20;;;;;;5051809;28;20704;-85
2021/11/07 14:16:09;;;;;;;1.20;1.10;;;;;;;;;;5050104;28;20635;-87
2021/11/07 14:18:42;;;;;;;1.70;1.60;;;;;;;;;;5051833;28;20734;-87
2021/11/07 14:21:11;;;;;;;1.67;1.57;;;;;;;;;;5069040;28;20641;-85
2021/11/07 14:23:44;;;;;;;0.63;0.63;;;;;;;;;;5064611;28;20631;-85
2021/11/07 14:26:20;;;;;;;1.30;1.00;;;9.60;99.90;;;;;;5066828;28;20644;-87
2021/11/07 14:28:55;;;;;;;0.93;0.93;;;9.50;99.90;;;;;;5073909;28;21226;-85
2021/11/07 14:31:26;;;;;;;1.37;1.27;;;;;;;;;;5091035;28;20983;-85
2021/11/07 14:33:58;;;;;;;1.80;1.33;;;9.50;99.90;;;;;;5073636;28;21028;-85
2021/11/07 14:36:37;;;;;;;1.23;1.13;;;;;;;;;;5071317;28;20613;-87
2021/11/07 14:39:15;;;;;;;1.17;1.07;;;9.40;99.90;;;;;;5071190;28;20661;-86
2021/11/07 14:41:51;;;;;;;1.37;1.23;;;;;;;;;;5070874;28;20634;-86
2021/11/07 14:44:33;;;;;;;0.97;0.87;;;9.30;99.00;;;;;;5071287;28;20644;-86
2021/11/07 14:47:08;;;;;;;1.00;0.90;;;;;;;;;;5081820;28;20618;-85
2021/11/07 14:49:42;;;;;;;1.60;1.50;;;;;;;;;;5071490;28;20628;-86
2021/11/07 14:54:59;;;;;;;0.60;0.60;;;;;;;;;;5051977;28;20680;-86
2021/11/07 15:00:33;;;;;;;1.07;1.00;;;9.20;99.90;;;;;;5028410;28;21227;-86
2021/11/07 15:03:01;;;;;;;1.30;0.87;;;9.20;99.90;;;;;;5070314;28;20633;-86
2021/11/07 15:05:34;;;;;;;1.30;1.00;;;;;;;;;;5070698;28;20623;-85
2021/11/07 15:08:10;;;;;;;2.97;1.10;;;;;;;;;;5077331;28;20609;-86
2021/11/07 15:10:43;;;;;;;2.90;1.17;;;;;;;;;;5090361;28;20620;-86